sensor_id;sensor_type;location;lat;lon;timestamp;pressure;altitude;pressure_sealevel;temperature;humidity
41967;BME280;27656;53.068;8.818;2024-03-22T00:00:55;101951.72;;;9.24;100.00
41967;BME280;27656;53.068;8.818;2024-03-22T00:03:21;101951.81;;;9.22;100.00
41967;BME280;27656;53.068;8.818;2024-03-22T00:05:47;101956.75;;;9.27;100.00
41967;BME280;27656;53.068;8.818;2024-03-22T00:08:13;101946.09;;;9.40;100.00
41967;BME280;27656;53.068;8.818;2024-03-22T00:10:38;101943.56;;;9.38;100.00
41967;BME280;27656;53.068;8.818;2024-03-22T00:13:04;101946.56;;;9.33;100.00
41967;BME280;27656;53.068;8.818;2024-03-22T00:15:29;101947.16;;;9.26;100.00
41967;BME280;27656;53.068;8.818;2024-03-22T00:17:55;101953.03;;;9.29;100.00
41967;BME280;27656;53.068;8.818;2024-03-22T00:20:20;101950.16;;;9.21;100.00
41967;BME280;27656;53.068;8.818;2024-03-22T00:22:46;101954.09;;;9.27;100.00
41967;BME280;27656;53.068;8.818;2024-03-22T00:25:11;101955.06;;;9.26;100.00
41967;BME280;27656;53.068;8.818;2024-03-22T00:27:37;101940.34;;;9.23;100.00
41967;BME280;27656;53.068;8.818;2024-03-22T00:30:03;101935.41;;;9.30;100.00
41967;BME280;27656;53.068;8.818;2024-03-22T00:32:29;101934.56;;;9.29;100.00
41967;BME280;27656;53.068;8.818;2024-03-22T00:34:55;101935.56;;;9.28;100.00
41967;BME280;27656;53.068;8.818;2024-03-22T00:37:20;101934.72;;;9.28;100.00
41967;BME280;27656;53.068;8.818;2024-03-22T00:39:46;101934.72;;;9.28;100.00
41967;BME280;27656;53.068;8.818;2024-03-22T00:42:11;101930.75;;;9.33;100.00
41967;BME280;27656;53.068;8.818;2024-03-22T00:44:37;101931.72;;;9.32;100.00
41967;BME280;27656;53.068;8.818;2024-03-22T00:47:02;101920.09;;;9.35;100.00
41967;BME280;27656;53.068;8.818;2024-03-22T00:49:29;101914.47;;;9.40;100.00
41967;BME280;27656;53.068;8.818;2024-03-22T00:51:55;101910.72;;;9.42;100.00
41967;BME280;27656;53.068;8.818;2024-03-22T00:54:22;101900.19;;;9.42;100.00
41967;BME280;27656;53.068;8.818;2024-03-22T00:56:47;101899.09;;;9.45;100.00
41967;BME280;27656;53.068;8.818;2024-03-22T00:59:13;101907.97;;;9.44;100.00
41967;BME280;27656;53.068;8.818;2024-03-22T01:01:38;101911.69;;;9.41;100.00
41967;BME280;27656;53.068;8.818;2024-03-22T01:04:04;101901.75;;;9.45;100.00
41967;BME280;27656;53.068;8.818;2024-03-22T01:06:29;101902.94;;;9.41;100.00
41967;BME280;27656;53.068;8.818;2024-03-22T01:08:55;101914.19;;;9.43;100.00
41967;BME280;27656;53.068;8.818;2024-03-22T01:11:21;101904.59;;;9.42;100.00
41967;BME280;27656;53.068;8.818;2024-03-22T01:13:46;101899.59;;;9.39;100.00
41967;BME280;27656;53.068;8.818;2024-03-22T01:16:12;101901.97;;;9.42;100.00
41967;BME280;27656;53.068;8.818;2024-03-22T01:18:37;101881.22;;;9.48;100.00
41967;BME280;27656;53.068;8.818;2024-03-22T01:21:03;101878.34;;;9.51;100.00
41967;BME280;27656;53.068;8.818;2024-03-22T01:23:30;101867.56;;;9.54;100.00
41967;BME280;27656;53.068;8.818;2024-03-22T01:25:55;101864.09;;;9.54;100.00
41967;BME280;27656;53.068;8.818;2024-03-22T01:28:21;101852.69;;;9.53;100.00
41967;BME280;27656;53.068;8.818;2024-03-22T01:30:46;101843.13;;;9.52;100.00
41967;BME280;27656;53.068;8.818;2024-03-22T01:33:12;101845.31;;;9.47;100.00
41967;BME280;27656;53.068;8.818;2024-03-22T01:35:38;101842.53;;;9.49;100.00
41967;BME280;27656;53.068;8.818;2024-03-22T01:38:04;101831.84;;;9.50;100.00
41967;BME280;27656;53.068;8.818;2024-03-22T01:40:29;101817.69;;;9.51;100.00
41967;BME280;27656;53.068;8.818;2024-03-22T01:42:58;101812.06;;;9.56;100.00
41967;BME280;27656;53.068;8.818;2024-03-22T01:45:24;101803.53;;;9.64;100.00
41967;BME280;27656;53.068;8.818;2024-03-22T01:47:53;101803.28;;;9.67;100.00
41967;BME280;27656;53.068;8.818;2024-03-22T01:50:20;101792.41;;;9.60;100.00
41967;BME280;27656;53.068;8.818;2024-03-22T01:52:46;101791.81;;;9.57;100.00
41967;BME280;27656;53.068;8.818;2024-03-22T01:58:58;101790.66;;;9.49;100.00
41967;BME280;27656;53.068;8.818;2024-03-22T02:01:24;101785.50;;;9.48;100.00
41967;BME280;27656;53.068;8.818;2024-03-22T02:03:49;101787.53;;;9.44;100.00
41967;BME280;27656;53.068;8.818;2024-03-22T02:06:15;101782.16;;;9.46;100.00
41967;BME280;27656;53.068;8.818;2024-03-22T02:08:40;101782.25;;;9.44;100.00
41967;BME280;27656;53.068;8.818;2024-03-22T02:11:07;101781.59;;;9.42;100.00
41967;BME280;27656;53.068;8.818;2024-03-22T02:13:33;101776.75;;;9.47;100.00
41967;BME280;27656;53.068;8.818;2024-03-22T02:15:59;101771.34;;;9.49;100.00
41967;BME280;27656;53.068;8.818;2024-03-22T02:18:25;101770.03;;;9.54;100.00
41967;BME280;27656;53.068;8.818;2024-03-22T02:20:50;101772.31;;;9.48;100.00
41967;BME280;27656;53.068;8.818;2024-03-22T02:23:16;101755.06;;;9.44;100.00
41967;BME280;27656;53.068;8.818;2024-03-22T02:25:41;101760.34;;;9.44;100.00
41967;BME280;27656;53.068;8.818;2024-03-22T02:28:07;101748.00;;;9.44;100.00
41967;BME280;27656;53.068;8.818;2024-03-22T02:30:32;101747.06;;;9.45;100.00
41967;BME280;27656;53.068;8.818;2024-03-22T02:32:58;101745.25;;;9.46;100.00
41967;BME280;27656;53.068;8.818;2024-03-22T02:35:23;101735.31;;;9.49;100.00
41967;BME280;27656;53.068;8.818;2024-03-22T02:37:49;101726.53;;;9.49;100.00
41967;BME280;27656;53.068;8.818;2024-03-22T02:40:14;101720.16;;;9.51;100.00
41967;BME280;27656;53.068;8.818;2024-03-22T02:42:40;101722.94;;;9.50;100.00
41967;BME280;27656;53.068;8.818;2024-03-22T02:45:06;101726.78;;;9.46;100.00
41967;BME280;27656;53.068;8.818;2024-03-22T02:47:31;101720.31;;;9.50;100.00
41967;BME280;27656;53.068;8.818;2024-03-22T02:49:57;101718.50;;;9.50;100.00
41967;BME280;27656;53.068;8.818;2024-03-22T02:52:22;101728.06;;;9.51;100.00
41967;BME280;27656;53.068;8.818;2024-03-22T02:54:48;101718.25;;;9.53;100.00
41967;BME280;27656;53.068;8.818;2024-03-22T02:57:13;101715.38;;;9.57;100.00
41967;BME280;27656;53.068;8.818;2024-03-22T02:59:39;101713.69;;;9.55;100.00
41967;BME280;27656;53.068;8.818;2024-03-22T03:02:23;101698.91;;;9.64;100.00
41967;BME280;27656;53.068;8.818;2024-03-22T03:05:01;101692.22;;;9.60;100.00
41967;BME280;27656;53.068;8.818;2024-03-22T03:08:00;101690.53;;;9.59;100.00
41967;BME280;27656;53.068;8.818;2024-03-22T03:10:26;101680.25;;;9.56;100.00
41967;BME280;27656;53.068;8.818;2024-03-22T03:12:56;101680.94;;;9.58;100.00
41967;BME280;27656;53.068;8.818;2024-03-22T03:15:21;101674.03;;;9.57;100.00
41967;BME280;27656;53.068;8.818;2024-03-22T03:17:47;101668.34;;;9.62;100.00
41967;BME280;27656;53.068;8.818;2024-03-22T03:20:12;101664.19;;;9.59;100.00
41967;BME280;27656;53.068;8.818;2024-03-22T03:22:42;101665.19;;;9.68;100.00
41967;BME280;27656;53.068;8.818;2024-03-22T03:25:08;101650.63;;;9.64;100.00
41967;BME280;27656;53.068;8.818;2024-03-22T03:27:33;101648.53;;;9.67;100.00
41967;BME280;27656;53.068;8.818;2024-03-22T03:29:59;101638.00;;;9.67;100.00
41967;BME280;27656;53.068;8.818;2024-03-22T03:32:25;101638.69;;;9.69;100.00
41967;BME280;27656;53.068;8.818;2024-03-22T03:34:51;101637.88;;;9.69;100.00
41967;BME280;27656;53.068;8.818;2024-03-22T03:37:16;101639.78;;;9.67;100.00
41967;BME280;27656;53.068;8.818;2024-03-22T03:39:42;101630.50;;;9.72;100.00
41967;BME280;27656;53.068;8.818;2024-03-22T03:42:07;101629.81;;;9.70;100.00
41967;BME280;27656;53.068;8.818;2024-03-22T03:44:33;101637.31;;;9.75;100.00
41967;BME280;27656;53.068;8.818;2024-03-22T03:47:00;101632.31;;;9.72;100.00
41967;BME280;27656;53.068;8.818;2024-03-22T03:49:26;101641.78;;;9.74;100.00
41967;BME280;27656;53.068;8.818;2024-03-22T03:51:51;101629.69;;;9.72;100.00
41967;BME280;27656;53.068;8.818;2024-03-22T03:54:17;101627.63;;;9.75;100.00
41967;BME280;27656;53.068;8.818;2024-03-22T03:56:42;101617.91;;;9.76;100.00
41967;BME280;27656;53.068;8.818;2024-03-22T03:59:08;101609.59;;;9.81;100.00
41967;BME280;27656;53.068;8.818;2024-03-22T04:01:33;101598.91;;;9.82;100.00
41967;BME280;27656;53.068;8.818;2024-03-22T04:03:59;101601.00;;;9.79;100.00
41967;BME280;27656;53.068;8.818;2024-03-22T04:06:24;101595.44;;;9.82;100.00
41967;BME280;27656;53.068;8.818;2024-03-22T04:08:50;101580.44;;;9.82;100.00
41967;BME280;27656;53.068;8.818;2024-03-22T04:11:15;101590.34;;;9.90;100.00
41967;BME280;27656;53.068;8.818;2024-03-22T04:13:41;101595.19;;;9.85;100.00
41967;BME280;27656;53.068;8.818;2024-03-22T04:16:07;101592.41;;;9.86;100.00
41967;BME280;27656;53.068;8.818;2024-03-22T04:18:32;101600.91;;;9.90;100.00
41967;BME280;27656;53.068;8.818;2024-03-22T04:20:59;101589.78;;;9.86;100.00
41967;BME280;27656;53.068;8.818;2024-03-22T04:23:25;101591.06;;;9.92;100.00
41967;BME280;27656;53.068;8.818;2024-03-22T04:25:55;101576.19;;;9.91;100.00
41967;BME280;27656;53.068;8.818;2024-03-22T04:28:21;101586.59;;;9.92;100.00
41967;BME280;27656;53.068;8.818;2024-03-22T04:31:02;101573.25;;;9.94;100.00
41967;BME280;27656;53.068;8.818;2024-03-22T04:33:29;101570.50;;;9.95;100.00
41967;BME280;27656;53.068;8.818;2024-03-22T04:35:56;101576.91;;;10.03;100.00
41967;BME280;27656;53.068;8.818;2024-03-22T04:38:22;101570.53;;;10.05;100.00
41967;BME280;27656;53.068;8.818;2024-03-22T04:40:48;101566.75;;;9.98;100.00
41967;BME280;27656;53.068;8.818;2024-03-22T04:43:14;101567.47;;;10.00;100.00
41967;BME280;27656;53.068;8.818;2024-03-22T04:45:42;101560.53;;;9.99;100.00
41967;BME280;27656;53.068;8.818;2024-03-22T04:48:08;101568.44;;;9.99;100.00
41967;BME280;27656;53.068;8.818;2024-03-22T04:50:33;101562.31;;;9.98;100.00
41967;BME280;27656;53.068;8.818;2024-03-22T04:52:59;101560.13;;;10.04;100.00
41967;BME280;27656;53.068;8.818;2024-03-22T04:55:24;101556.38;;;10.06;100.00
41967;BME280;27656;53.068;8.818;2024-03-22T04:57:51;101556.78;;;10.02;100.00
41967;BME280;27656;53.068;8.818;2024-03-22T05:00:17;101554.69;;;10.05;100.00
41967;BME280;27656;53.068;8.818;2024-03-22T05:02:43;101558.31;;;10.04;100.00
41967;BME280;27656;53.068;8.818;2024-03-22T05:05:08;101562.06;;;10.02;100.00
41967;BME280;27656;53.068;8.818;2024-03-22T05:07:35;101558.31;;;10.04;100.00
41967;BME280;27656;53.068;8.818;2024-03-22T05:10:01;101547.63;;;10.06;100.00
41967;BME280;27656;53.068;8.818;2024-03-22T05:12:27;101546.38;;;10.10;100.00
41967;BME280;27656;53.068;8.818;2024-03-22T05:14:52;101543.44;;;10.03;100.00
41967;BME280;27656;53.068;8.818;2024-03-22T05:17:18;101541.38;;;10.07;100.00
41967;BME280;27656;53.068;8.818;2024-03-22T05:19:43;101545.97;;;10.05;100.00
41967;BME280;27656;53.068;8.818;2024-03-22T05:22:09;101544.44;;;10.12;100.00
41967;BME280;27656;53.068;8.818;2024-03-22T05:24:34;101540.56;;;10.06;100.00
41967;BME280;27656;53.068;8.818;2024-03-22T05:27:00;101534.72;;;10.12;100.00
41967;BME280;27656;53.068;8.818;2024-03-22T05:29:25;101541.69;;;10.13;100.00
41967;BME280;27656;53.068;8.818;2024-03-22T05:31:51;101538.34;;;10.11;100.00
41967;BME280;27656;53.068;8.818;2024-03-22T05:34:17;101538.06;;;10.14;100.00
41967;BME280;27656;53.068;8.818;2024-03-22T05:36:44;101538.06;;;10.14;100.00
41967;BME280;27656;53.068;8.818;2024-03-22T05:39:10;101537.06;;;10.15;100.00
41967;BME280;27656;53.068;8.818;2024-03-22T05:41:38;101538.47;;;10.19;100.00
41967;BME280;27656;53.068;8.818;2024-03-22T05:44:04;101538.47;;;10.19;100.00
41967;BME280;27656;53.068;8.818;2024-03-22T05:46:30;101536.66;;;10.20;100.00
41967;BME280;27656;53.068;8.818;2024-03-22T05:48:57;101533.13;;;10.31;100.00
41967;BME280;27656;53.068;8.818;2024-03-22T05:51:22;101534.75;;;10.32;100.00
41967;BME280;27656;53.068;8.818;2024-03-22T05:53:48;101524.59;;;10.27;100.00
41967;BME280;27656;53.068;8.818;2024-03-22T05:56:13;101522.09;;;10.26;100.00
41967;BME280;27656;53.068;8.818;2024-03-22T05:58:39;101523.66;;;10.28;100.00
41967;BME280;27656;53.068;8.818;2024-03-22T06:01:05;101519.09;;;10.30;100.00
41967;BME280;27656;53.068;8.818;2024-03-22T06:03:31;101506.72;;;10.31;100.00
41967;BME280;27656;53.068;8.818;2024-03-22T06:05:58;101501.31;;;10.42;100.00
41967;BME280;27656;53.068;8.818;2024-03-22T06:08:26;101509.06;;;10.44;100.00
41967;BME280;27656;53.068;8.818;2024-03-22T06:10:55;101508.94;;;10.45;100.00
41967;BME280;27656;53.068;8.818;2024-03-22T06:13:23;101505.19;;;10.48;100.00
41967;BME280;27656;53.068;8.818;2024-03-22T06:15:49;101507.81;;;10.57;100.00
41967;BME280;27656;53.068;8.818;2024-03-22T06:18:15;101492.53;;;10.61;100.00
41967;BME280;27656;53.068;8.818;2024-03-22T06:20:41;101484.34;;;10.64;100.00
41967;BME280;27656;53.068;8.818;2024-03-22T06:23:07;101491.13;;;10.67;100.00
41967;BME280;27656;53.068;8.818;2024-03-22T06:25:33;101472.34;;;10.70;100.00
41967;BME280;27656;53.068;8.818;2024-03-22T06:27:59;101469.84;;;10.78;100.00
41967;BME280;27656;53.068;8.818;2024-03-22T06:30:25;101470.81;;;10.77;100.00
41967;BME280;27656;53.068;8.818;2024-03-22T06:32:51;101490.16;;;10.77;100.00
41967;BME280;27656;53.068;8.818;2024-03-22T06:35:16;101481.81;;;10.82;100.00
41967;BME280;27656;53.068;8.818;2024-03-22T06:37:42;101482.06;;;10.79;100.00
41967;BME280;27656;53.068;8.818;2024-03-22T06:40:07;101479.16;;;10.72;100.00
41967;BME280;27656;53.068;8.818;2024-03-22T06:42:33;101482.78;;;10.71;100.00
41967;BME280;27656;53.068;8.818;2024-03-22T06:44:59;101475.84;;;10.70;100.00
41967;BME280;27656;53.068;8.818;2024-03-22T06:47:24;101481.28;;;10.69;100.00
41967;BME280;27656;53.068;8.818;2024-03-22T06:49:50;101472.53;;;10.68;100.00
41967;BME280;27656;53.068;8.818;2024-03-22T06:52:15;101475.16;;;10.68;100.00
41967;BME280;27656;53.068;8.818;2024-03-22T06:54:41;101478.50;;;10.70;100.00
41967;BME280;27656;53.068;8.818;2024-03-22T06:57:07;101477.38;;;10.73;100.00
41967;BME280;27656;53.068;8.818;2024-03-22T06:59:32;101482.94;;;10.70;100.00
41967;BME280;27656;53.068;8.818;2024-03-22T07:01:58;101490.31;;;10.66;100.00
41967;BME280;27656;53.068;8.818;2024-03-22T07:04:24;101486.97;;;10.64;100.00
41967;BME280;27656;53.068;8.818;2024-03-22T07:06:49;101489.31;;;10.67;100.00
41967;BME280;27656;53.068;8.818;2024-03-22T07:09:15;101480.44;;;10.68;100.00
41967;BME280;27656;53.068;8.818;2024-03-22T07:11:41;101479.03;;;10.74;100.00
41967;BME280;27656;53.068;8.818;2024-03-22T07:14:06;101467.22;;;10.78;100.00
41967;BME280;27656;53.068;8.818;2024-03-22T07:16:32;101450.53;;;10.77;100.00
41967;BME280;27656;53.068;8.818;2024-03-22T07:18:57;101461.09;;;10.77;100.00
41967;BME280;27656;53.068;8.818;2024-03-22T07:21:23;101467.50;;;10.75;100.00
41967;BME280;27656;53.068;8.818;2024-03-22T07:23:48;101445.56;;;10.65;100.00
41967;BME280;27656;53.068;8.818;2024-03-22T07:26:14;101451.66;;;10.75;100.00
41967;BME280;27656;53.068;8.818;2024-03-22T07:28:39;101454.00;;;10.78;100.00
41967;BME280;27656;53.068;8.818;2024-03-22T07:31:05;101458.69;;;10.84;100.00
41967;BME280;27656;53.068;8.818;2024-03-22T07:33:31;101465.41;;;10.78;100.00
41967;BME280;27656;53.068;8.818;2024-03-22T07:36:04;101457.59;;;10.77;100.00
41967;BME280;27656;53.068;8.818;2024-03-22T07:38:29;101459.13;;;10.79;100.00
41967;BME280;27656;53.068;8.818;2024-03-22T07:40:55;101450.94;;;10.82;100.00
41967;BME280;27656;53.068;8.818;2024-03-22T07:43:21;101442.72;;;10.86;100.00
41967;BME280;27656;53.068;8.818;2024-03-22T07:45:46;101444.53;;;10.85;100.00
41967;BME280;27656;53.068;8.818;2024-03-22T07:48:12;101447.47;;;10.82;100.00
41967;BME280;27656;53.068;8.818;2024-03-22T07:50:37;101446.63;;;10.81;100.00
41967;BME280;27656;53.068;8.818;2024-03-22T07:53:03;101441.63;;;10.78;100.00
41967;BME280;27656;53.068;8.818;2024-03-22T07:55:28;101447.03;;;10.77;100.00
41967;BME280;27656;53.068;8.818;2024-03-22T07:57:54;101441.38;;;10.72;100.00
41967;BME280;27656;53.068;8.818;2024-03-22T08:00:19;101444.28;;;10.78;100.00
41967;BME280;27656;53.068;8.818;2024-03-22T08:02:45;101443.28;;;10.79;100.00
41967;BME280;27656;53.068;8.818;2024-03-22T08:05:10;101442.47;;;10.79;100.00
41967;BME280;27656;53.068;8.818;2024-03-22T08:07:36;101442.31;;;10.80;100.00
41967;BME280;27656;53.068;8.818;2024-03-22T08:10:02;101429.94;;;10.81;100.00
41967;BME280;27656;53.068;8.818;2024-03-22T08:12:29;101433.84;;;10.77;100.00
41967;BME280;27656;53.068;8.818;2024-03-22T08:14:55;101433.41;;;10.81;100.00
41967;BME280;27656;53.068;8.818;2024-03-22T08:17:21;101433.28;;;10.83;100.00
41967;BME280;27656;53.068;8.818;2024-03-22T08:19:46;101433.16;;;10.85;100.00
41967;BME280;27656;53.068;8.818;2024-03-22T08:22:12;101432.97;;;10.86;100.00
41967;BME280;27656;53.068;8.818;2024-03-22T08:24:38;101429.22;;;10.89;100.00
41967;BME280;27656;53.068;8.818;2024-03-22T08:27:03;101420.28;;;10.99;100.00
41967;BME280;27656;53.068;8.818;2024-03-22T08:29:29;101416.09;;;11.07;100.00
41967;BME280;27656;53.068;8.818;2024-03-22T08:31:54;101406.91;;;11.11;100.00
41967;BME280;27656;53.068;8.818;2024-03-22T08:34:21;101406.03;;;11.10;100.00
41967;BME280;27656;53.068;8.818;2024-03-22T08:36:47;101400.69;;;11.02;100.00
41967;BME280;27656;53.068;8.818;2024-03-22T08:39:12;101413.88;;;11.02;100.00
41967;BME280;27656;53.068;8.818;2024-03-22T08:41:38;101409.38;;;11.12;100.00
41967;BME280;27656;53.068;8.818;2024-03-22T08:44:04;101407.81;;;11.19;100.00
41967;BME280;27656;53.068;8.818;2024-03-22T08:46:30;101403.28;;;11.12;100.00
41967;BME280;27656;53.068;8.818;2024-03-22T08:48:57;101408.00;;;11.18;100.00
41967;BME280;27656;53.068;8.818;2024-03-22T08:51:23;101407.00;;;11.19;100.00
41967;BME280;27656;53.068;8.818;2024-03-22T08:53:48;101406.22;;;11.09;100.00
41967;BME280;27656;53.068;8.818;2024-03-22T08:56:14;101400.09;;;11.08;100.00
41967;BME280;27656;53.068;8.818;2024-03-22T08:58:40;101390.19;;;11.10;100.00
41967;BME280;27656;53.068;8.818;2024-03-22T09:01:06;101399.94;;;11.10;100.00
41967;BME280;27656;53.068;8.818;2024-03-22T09:03:32;101393.97;;;11.08;100.00
41967;BME280;27656;53.068;8.818;2024-03-22T09:05:57;101397.84;;;11.13;100.00
41967;BME280;27656;53.068;8.818;2024-03-22T09:08:23;101396.78;;;11.06;100.00
41967;BME280;27656;53.068;8.818;2024-03-22T09:10:49;101385.50;;;11.04;100.00
41967;BME280;27656;53.068;8.818;2024-03-22T09:13:14;101392.31;;;11.07;100.00
41967;BME280;27656;53.068;8.818;2024-03-22T09:15:40;101378.97;;;11.08;100.00
41967;BME280;27656;53.068;8.818;2024-03-22T09:18:05;101382.91;;;11.22;100.00
41967;BME280;27656;53.068;8.818;2024-03-22T09:20:31;101378.69;;;11.29;100.00
41967;BME280;27656;53.068;8.818;2024-03-22T09:22:57;101380.38;;;11.48;100.00
41967;BME280;27656;53.068;8.818;2024-03-22T09:25:24;101375.09;;;11.48;100.00
41967;BME280;27656;53.068;8.818;2024-03-22T09:27:51;101369.97;;;11.46;100.00
41967;BME280;27656;53.068;8.818;2024-03-22T09:30:16;101372.69;;;11.37;100.00
41967;BME280;27656;53.068;8.818;2024-03-22T09:32:42;101371.31;;;11.33;100.00
41967;BME280;27656;53.068;8.818;2024-03-22T09:35:08;101367.72;;;11.24;100.00
41967;BME280;27656;53.068;8.818;2024-03-22T09:37:34;101367.47;;;11.27;100.00
41967;BME280;27656;53.068;8.818;2024-03-22T09:39:59;101370.44;;;11.14;100.00
41967;BME280;27656;53.068;8.818;2024-03-22T09:42:25;101368.53;;;11.07;100.00
41967;BME280;27656;53.068;8.818;2024-03-22T09:44:54;101372.31;;;11.04;100.00
41967;BME280;27656;53.068;8.818;2024-03-22T09:47:20;101362.03;;;11.01;100.00
41967;BME280;27656;53.068;8.818;2024-03-22T09:49:46;101368.56;;;10.97;100.00
41967;BME280;27656;53.068;8.818;2024-03-22T09:52:14;101371.75;;;11.00;100.00
41967;BME280;27656;53.068;8.818;2024-03-22T09:54:44;101368.53;;;11.07;100.00
41967;BME280;27656;53.068;8.818;2024-03-22T09:57:13;101368.91;;;11.12;100.00
41967;BME280;27656;53.068;8.818;2024-03-22T09:59:39;101369.34;;;11.07;100.00
41967;BME280;27656;53.068;8.818;2024-03-22T10:02:08;101383.41;;;11.08;100.00
41967;BME280;27656;53.068;8.818;2024-03-22T10:04:36;101378.81;;;11.10;100.00
41967;BME280;27656;53.068;8.818;2024-03-22T10:07:02;101383.25;;;11.09;100.00
41967;BME280;27656;53.068;8.818;2024-03-22T10:09:29;101379.41;;;11.03;100.00
41967;BME280;27656;53.068;8.818;2024-03-22T10:11:58;101386.38;;;10.95;100.00
41967;BME280;27656;53.068;8.818;2024-03-22T10:14:24;101380.59;;;10.81;100.00
41967;BME280;27656;53.068;8.818;2024-03-22T10:16:51;101385.38;;;10.96;100.00
41967;BME280;27656;53.068;8.818;2024-03-22T10:19:20;101385.06;;;11.09;100.00
41967;BME280;27656;53.068;8.818;2024-03-22T10:21:46;101381.25;;;11.21;100.00
41967;BME280;27656;53.068;8.818;2024-03-22T10:24:11;101383.31;;;11.27;100.00
41967;BME280;27656;53.068;8.818;2024-03-22T10:26:37;101386.22;;;11.24;100.00
41967;BME280;27656;53.068;8.818;2024-03-22T10:29:06;101368.28;;;11.28;100.00
41967;BME280;27656;53.068;8.818;2024-03-22T10:31:34;101376.84;;;11.39;100.00
41967;BME280;27656;53.068;8.818;2024-03-22T10:34:02;101376.03;;;11.57;100.00
41967;BME280;27656;53.068;8.818;2024-03-22T10:36:29;101385.25;;;11.71;100.00
41967;BME280;27656;53.068;8.818;2024-03-22T10:38:56;101383.22;;;11.82;100.00
41967;BME280;27656;53.068;8.818;2024-03-22T10:41:24;101375.38;;;11.91;100.00
41967;BME280;27656;53.068;8.818;2024-03-22T10:43:49;101372.72;;;11.91;100.00
41967;BME280;27656;53.068;8.818;2024-03-22T10:46:16;101370.75;;;12.11;100.00
41967;BME280;27656;53.068;8.818;2024-03-22T10:48:45;101369.75;;;12.12;100.00
41967;BME280;27656;53.068;8.818;2024-03-22T10:51:11;101360.41;;;11.99;100.00
41967;BME280;27656;53.068;8.818;2024-03-22T10:53:38;101367.94;;;11.76;100.00
41967;BME280;27656;53.068;8.818;2024-03-22T10:56:04;101371.22;;;11.70;100.00
41967;BME280;27656;53.068;8.818;2024-03-22T10:58:31;101368.47;;;11.62;100.00
41967;BME280;27656;53.068;8.818;2024-03-22T11:00:57;101368.53;;;11.52;100.00
41967;BME280;27656;53.068;8.818;2024-03-22T11:03:25;101367.41;;;11.55;100.00
41967;BME280;27656;53.068;8.818;2024-03-22T11:05:54;101368.91;;;11.57;100.00
41967;BME280;27656;53.068;8.818;2024-03-22T11:08:28;101359.41;;;11.64;100.00
41967;BME280;27656;53.068;8.818;2024-03-22T11:10:56;101361.81;;;11.58;100.00
41967;BME280;27656;53.068;8.818;2024-03-22T11:13:23;101364.00;;;11.62;100.00
41967;BME280;27656;53.068;8.818;2024-03-22T11:15:49;101354.28;;;11.63;100.00
41967;BME280;27656;53.068;8.818;2024-03-22T11:18:16;101355.03;;;11.73;100.00
41967;BME280;27656;53.068;8.818;2024-03-22T11:20:42;101352.47;;;11.63;100.00
41967;BME280;27656;53.068;8.818;2024-03-22T11:23:09;101352.47;;;11.63;100.00
41967;BME280;27656;53.068;8.818;2024-03-22T11:25:34;101349.59;;;11.75;100.00
41967;BME280;27656;53.068;8.818;2024-03-22T11:28:00;101342.47;;;11.75;100.00
41967;BME280;27656;53.068;8.818;2024-03-22T11:30:32;101342.41;;;11.85;100.00
41967;BME280;27656;53.068;8.818;2024-03-22T11:32:57;101335.00;;;11.71;100.00
41967;BME280;27656;53.068;8.818;2024-03-22T11:35:26;101334.69;;;11.74;100.00
41967;BME280;27656;53.068;8.818;2024-03-22T11:37:51;101332.59;;;11.77;100.00
41967;BME280;27656;53.068;8.818;2024-03-22T11:40:17;101335.75;;;11.81;100.00
41967;BME280;27656;53.068;8.818;2024-03-22T11:42:46;101329.47;;;11.64;100.00
41967;BME280;27656;53.068;8.818;2024-03-22T11:45:15;101324.78;;;11.58;100.00
41967;BME280;27656;53.068;8.818;2024-03-22T11:47:41;101326.75;;;11.74;100.00
41967;BME280;27656;53.068;8.818;2024-03-22T11:50:07;101322.28;;;11.74;100.00
41967;BME280;27656;53.068;8.818;2024-03-22T11:52:34;101322.75;;;11.70;100.00
41967;BME280;27656;53.068;8.818;2024-03-22T11:55:00;101319.59;;;11.66;100.00
41967;BME280;27656;53.068;8.818;2024-03-22T11:57:28;101319.59;;;11.66;100.00
41967;BME280;27656;53.068;8.818;2024-03-22T11:59:59;101322.75;;;11.70;100.00
41967;BME280;27656;53.068;8.818;2024-03-22T12:02:25;101320.25;;;11.68;100.00
41967;BME280;27656;53.068;8.818;2024-03-22T12:04:51;101319.22;;;11.61;100.00
41967;BME280;27656;53.068;8.818;2024-03-22T12:07:17;101323.88;;;11.67;100.00
41967;BME280;27656;53.068;8.818;2024-03-22T12:09:46;101314.44;;;11.64;100.00
41967;BME280;27656;53.068;8.818;2024-03-22T12:12:13;101315.81;;;11.68;100.00
41967;BME280;27656;53.068;8.818;2024-03-22T12:14:39;101313.59;;;11.64;100.00
41967;BME280;27656;53.068;8.818;2024-03-22T12:17:06;101313.28;;;11.67;100.00
41967;BME280;27656;53.068;8.818;2024-03-22T12:19:32;101320.84;;;11.62;100.00
41967;BME280;27656;53.068;8.818;2024-03-22T12:21:58;101308.31;;;11.64;100.00
41967;BME280;27656;53.068;8.818;2024-03-22T12:24:24;101306.66;;;11.63;100.00
41967;BME280;27656;53.068;8.818;2024-03-22T12:26:50;101308.19;;;11.65;100.00
41967;BME280;27656;53.068;8.818;2024-03-22T12:29:16;101305.31;;;11.59;100.00
41967;BME280;27656;53.068;8.818;2024-03-22T12:31:42;101304.47;;;11.58;100.00
41967;BME280;27656;53.068;8.818;2024-03-22T12:34:08;101304.63;;;11.57;100.00
41967;BME280;27656;53.068;8.818;2024-03-22T12:36:34;101302.66;;;11.59;100.00
41967;BME280;27656;53.068;8.818;2024-03-22T12:38:59;101302.34;;;11.62;100.00
41967;BME280;27656;53.068;8.818;2024-03-22T12:41:27;101303.63;;;11.58;100.00